Latest METARs, TAFs and NOTAMs for SBCF


---------------------------------------------------------------------------
	(OBSERVATIONS)
SBCF 300100Z 11011KT 9999 FEW012 BKN100 18/15 Q1023=
SBCF 300000Z 11009KT 9999 FEW012 BKN100 18/15 Q1023=
SBCF 292300Z 10012KT CAVOK 18/15 Q1023=
---------------------------------------------------------------------------
	(TERMINAL AREA FORECAST)
SBCF 292200Z 3000/3024 12006KT 9999 BKN012 TN17/3009Z TX26/3017Z
    BECMG
    3005/3007 12004KT BKN015
    BECMG 3013/3015 09010KT 9000 NSC RMK PDC=
---------------------------------------------------------------------------
	(NOTAMS)


SBCF J0021/17 IAP ILS X OR LOC X RWY 16 WITHDRAWN REF: AIP AD
    2.24. 12 JAN 12:20 2017 UNTIL PERM. CREATED: 12 JAN 12:21
    2017

SBCF J0116/17 FLOW CTL PROC ACT ACFT TKOF SBCF DEST SBAR, SBMO,
    SBRF, SBJP, SBIL, SBSV, SBGO, SBKP, SBSP, SBGR, SBCT,SBPA
    AND SBFZ SHOULD BE FLW RTE PREFERENTIAL: 1-SBAR: KOKSU UZ16
    POSMU UZ36 SVD UZ17 2-SBMO: KOKSU UZ14 ELEFA DCT ARU DCT
    3-SBRF: KOKSU UZ14 AVILA UZ59 ZIPAR 4-SBJP: OBGAR UZ61 MUDOL
    UZ30 AVILA UZ59 ZIPAR DCT 5-SBIL: KOKSU UZ16 POSMU UZ36 MULSO
    DCT 6-SBSV: KOKSU UZ16 POSMU UZ36 MUMAS 7-SBGO: SELDO UZ8
    CORVO UZ46 8-SBKP: MOTMA UZ30 ENTIT 9-SBSP: MOTMA UZ30 ENTIT
    10-SBGR: MAVBO UZ21 MOXEP 11-SBCT: MOTMA UZ30 SCB UA310 ORANA
    12-SBPA: MOTMA UZ30 SCB UA310 CTB UW24 OCASO 13-SBFZ: OBGAR
    UZ61 OBGEL DCT ABUCU DCT. 25 FEB 12:35 2017 UNTIL 24 MAY
    23:59 2017. CREATED: 25 FEB 13:00 2017

SBCF J0129/17 PDC NOT AVBL. 02 MAR 15:47 2017 UNTIL 29 MAY 23:59
    2017. CREATED: 02 MAR 15:51 2017

SBCF J0178/17 ILS OM RWY 16 U/S. 10 APR 12:31 2017 UNTIL 17 MAY
    23:59 2017. CREATED: 10 APR 12:33 2017

SBCF J0184/17 RWY 16/34 CLSD DUE TO MAINT SER. APR 25 TIL 28
    0500-0800 MAY 03 TIL 05 0500-0800, 25 APR 05:00 2017 UNTIL
    05 MAY 08:00 2017. CREATED: 11 APR 17:09 2017

SBCF J0218/17 TWY CHARLIE 2 CLSD DUE TO WIP. 25 APR 00:40 2017
    UNTIL 29 MAY 23:59 2017. CREATED: 25 APR 00:42 2017

SBCF J0223/17 ILS RWY 16 U/S. 01 MAY 12:00 2017 UNTIL 01 MAY
    19:00 2017. CREATED: 27 APR 15:04 2017

SBCF J0299/16 IF NDB 215KHZ WITHDRAWN REF: AIP AD 2.24 AIP ENR
    4.1, ENR 6.1 (ENRC L2/H2 CNS123W SEQUENCE CHECK FOR SBRJYNYX
    J -- EXPECTED J0300/16 -- RECEIVED J0299/16 CNN038W DUPLICATE
    NOTAM TRANSACTION ROLLED BACK, RETCODE = 14. 20 MAY 00:00
    2016 UNTIL PERM. CREATED: 12 MAY 19:39 2016

SBCF J0309/16 IC NDB 245KHZ WITHDRAWN REF: AIP ENR 4.1, AIP ENR
    6.1 AIP ENR 6 ENRC L2/H2 AIP AD 2.24. 20 MAY 00:00 2016 UNTIL
    PERM. CREATED: 13 MAY 13:34 2016

SBCF J0684/15 CPDLC D-CL (DATA LINK CLEARANCE) HR SER H24 INSTL
    REF: AIP AD 2. 28 AUG 00:00 2015 UNTIL PERM. CREATED: 17
    AUG 19:09 2015

SBCF J0691/15 CPDLC (DATA LINK ATIS) HR SER H24 INSTL REF: AIP
    AD 2.18 AD 2.24 SID, IAC, STAR, PDC AND ADC. 28 AUG 00:00
    2015 UNTIL PERM. CREATED: 19 AUG 17:44 2015

SBCF J0894/16 SID RNAV GATOX 1A RWY 34 CHANGED IC NDB 245KHZ
    TO WAYPOINT CF012 REF:AIP AD 2.24. 13 DEC 17:41 2016 UNTIL
    PERM. CREATED: 13 DEC 19:00 2016

SBCF J1066/15 SID RNAV AKRAR 1A RWY 34 CHANGED IDENT WAYPOINT
    CF043 TO WH019 REF: AIP AD 2.24. 23 NOV 18:37 2015 UNTIL
    PERM. CREATED: 23 NOV 18:56 2015

---------------------------------------------------------------------------